Hlavní strana
METAR-TAF:

METAR-TAF

Letiště :

Džíbútí, Džibutsko

zeměpisná šířka: 11-33N, zeměpisná délka: 043-10E, výška: 49 m

Aktuální stav počasí

Zpráva byla vytvořena před 2 hodinami a 41 minutami, v 19:00 UTC
Jihojihovýchodní vítr 5 kt
Teplota 26°C
Vlhkost vzduchu 70%
Tlak 1015 hPa
Viditelnost 10 km a více
Žádná oblačnost pod 1500 m, nevyskytují se cumulonimby.

METAR: HDAM 221900Z 16005KT CAVOK 26/20 Q1015

Čas: 00:41 (21:41 UTC)

Předpověď počasí

Zpráva byla vytvořena před 4 hodinami a 41 minutami, v 17:00 UTC
Předpověď platná od 22 v 18 UTC do 23 v 18 UTC
vítr z různých směrů 3 kt
Skoro jasno ve výšce 2000 ft
Změna
od 23 v 00 UTC do 23 v 06 UTC
Severní vítr kt
Polojasno ve výšce 2000 ft
Změna
od 23 v 06 UTC do 23 v 15 UTC
Východní vítr 10 kt
Polojasno ve výšce 2300 ft

TAF: HDAM 221700Z 2218/2318 VRB03KT FEW020 BECMG 2300/2306 00000KT SCT020 BECMG 2306/2315 08010KT SCT023

Stav a předpovědi počasí z více než 4 000 letišť (zprávy METAR a TAF).

Červené a žluté tečky na mapě představují dostupné meteorologické stanice.

Když kurzor umístíte na tečku, zobrazí se název stanice.

Pak kliknutím zobrazíte stav a předpověď počasí.

Chcete-li změnit mapu, kliknutím na zelené tlačítko se znaménkem +mapu přiblížíte, kliknutím na zelené tlačítko se znaménkem – mapu oddálíte a kliknutím na zelené šipky přejdete na sousední mapy.


METAR-TAF: